Pagina principală
METAR-TAF:

METAR-TAF

Aeroporturi :

Independence, Kansas, Statele Unite ale Americii

Latitudine: 37-09-30N, longitudine: 095-46-42W, elevație: 251 m

Observații meteo curente

Raportul a fost făcut în urmă cu 38 de minute, la 21:15 UTC
Vânt 17 kt de la Sud/Sud-vest cu rafale de până la 24 kt
Temperatură 35°C
Umiditate 47%
Presiune 1012 hPa
Vizibilitate: 16.1 km
Cer senin

METAR: KIDP 222115Z AUTO 20017G24KT 10SM CLR 35/22 A2989 RMK AO2 T03540221

Ora: 16:53 (21:53 UTC)


TAF: lipsă

Observații și prognoze meteo pentru peste 4.000 de aeroporturi (rapoarte METAR și TAF).

Stațiile disponibile sunt reprezentate pe hartă prin puncte galbene și roșii.

Țineți indicatorul mouse-ului pe punctul dorit pentru a vedea denumirea stației.

Apoi, faceți clic pentru a vedea observațiile și prognozele meteorologice.

Pentru a schimba harta: Pentru mărire, faceți clic pe butoanele verzi cu cruce neagră; pentru micșorare, pe butonul verde cu o liniuță; pentru hărți învecinate, pe săgețile verzi.


METAR-TAF: